sensor_id;sensor_type;location;lat;lon;timestamp;pressure;altitude;pressure_sealevel;temperature;humidity
62051;BME280;48008;51.204;6.766;2023-03-22T00:01:12;100632.56;;;10.99;82.24
62051;BME280;48008;51.204;6.766;2023-03-22T00:03:39;100624.59;;;10.99;82.66
62051;BME280;48008;51.204;6.766;2023-03-22T00:06:07;100628.59;;;10.94;82.75
62051;BME280;48008;51.204;6.766;2023-03-22T00:08:34;100622.59;;;10.92;82.96
62051;BME280;48008;51.204;6.766;2023-03-22T00:11:02;100628.91;;;10.91;82.72
62051;BME280;48008;51.204;6.766;2023-03-22T00:13:29;100623.63;;;11.00;82.43
62051;BME280;48008;51.204;6.766;2023-03-22T00:15:57;100620.97;;;10.91;82.81
62051;BME280;48008;51.204;6.766;2023-03-22T00:18:25;100620.75;;;10.85;83.29
62051;BME280;48008;51.204;6.766;2023-03-22T00:20:53;100616.41;;;10.84;83.33
62051;BME280;48008;51.204;6.766;2023-03-22T00:23:22;100618.78;;;10.87;83.52
62051;BME280;48008;51.204;6.766;2023-03-22T00:25:51;100611.97;;;10.84;83.23
62051;BME280;48008;51.204;6.766;2023-03-22T00:28:18;100614.25;;;10.79;83.24
62051;BME280;48008;51.204;6.766;2023-03-22T00:30:56;100605.94;;;10.74;83.87
62051;BME280;48008;51.204;6.766;2023-03-22T00:33:26;100606.97;;;10.81;83.31
62051;BME280;48008;51.204;6.766;2023-03-22T00:35:57;100597.16;;;10.73;84.14
62051;BME280;48008;51.204;6.766;2023-03-22T00:38:25;100596.81;;;10.76;84.26
62051;BME280;48008;51.204;6.766;2023-03-22T00:41:17;100594.69;;;10.80;83.87
62051;BME280;48008;51.204;6.766;2023-03-22T00:43:47;100594.00;;;10.70;84.72
62051;BME280;48008;51.204;6.766;2023-03-22T00:46:15;100584.84;;;10.64;85.27
62051;BME280;48008;51.204;6.766;2023-03-22T00:48:42;100587.16;;;10.67;85.91
62051;BME280;48008;51.204;6.766;2023-03-22T00:51:10;100584.84;;;10.64;85.87
62051;BME280;48008;51.204;6.766;2023-03-22T00:53:38;100579.53;;;10.64;86.00
62051;BME280;48008;51.204;6.766;2023-03-22T00:56:08;100569.19;;;10.53;86.39
62051;BME280;48008;51.204;6.766;2023-03-22T00:58:42;100568.50;;;10.51;85.93
62051;BME280;48008;51.204;6.766;2023-03-22T01:01:11;100567.91;;;10.57;86.27
62051;BME280;48008;51.204;6.766;2023-03-22T01:03:40;100568.66;;;10.49;86.65
62051;BME280;48008;51.204;6.766;2023-03-22T01:06:09;100566.34;;;10.46;86.68
62051;BME280;48008;51.204;6.766;2023-03-22T01:08:36;100561.19;;;10.45;86.76
62051;BME280;48008;51.204;6.766;2023-03-22T01:11:05;100556.19;;;10.42;86.99
62051;BME280;48008;51.204;6.766;2023-03-22T01:13:34;100558.03;;;10.41;86.90
62051;BME280;48008;51.204;6.766;2023-03-22T01:16:04;100558.31;;;10.38;87.42
62051;BME280;48008;51.204;6.766;2023-03-22T01:18:32;100560.47;;;10.34;87.72
62051;BME280;48008;51.204;6.766;2023-03-22T01:20:59;100549.47;;;10.29;88.21
62051;BME280;48008;51.204;6.766;2023-03-22T01:23:26;100546.47;;;10.24;88.03
62051;BME280;48008;51.204;6.766;2023-03-22T01:25:53;100544.72;;;10.15;88.42
62051;BME280;48008;51.204;6.766;2023-03-22T01:28:20;100547.97;;;10.01;89.00
62051;BME280;48008;51.204;6.766;2023-03-22T01:30:47;100543.34;;;10.03;89.11
62051;BME280;48008;51.204;6.766;2023-03-22T01:33:14;100536.47;;;9.92;89.59
62051;BME280;48008;51.204;6.766;2023-03-22T01:35:40;100533.16;;;9.90;89.56
62051;BME280;48008;51.204;6.766;2023-03-22T01:38:08;100527.34;;;9.86;89.66
62051;BME280;48008;51.204;6.766;2023-03-22T01:40:41;100529.13;;;9.86;89.89
62051;BME280;48008;51.204;6.766;2023-03-22T01:43:12;100526.81;;;9.83;89.97
62051;BME280;48008;51.204;6.766;2023-03-22T01:45:42;100519.16;;;9.79;90.23
62051;BME280;48008;51.204;6.766;2023-03-22T01:48:19;100511.50;;;9.76;90.43
62051;BME280;48008;51.204;6.766;2023-03-22T01:51:08;100509.00;;;9.75;90.63
62051;BME280;48008;51.204;6.766;2023-03-22T01:53:47;100507.50;;;9.72;90.93
62051;BME280;48008;51.204;6.766;2023-03-22T01:56:18;100505.31;;;9.68;91.06
62051;BME280;48008;51.204;6.766;2023-03-22T01:58:47;100503.16;;;9.63;91.38
62051;BME280;48008;51.204;6.766;2023-03-22T02:01:19;100494.53;;;9.61;91.52
62051;BME280;48008;51.204;6.766;2023-03-22T02:03:56;100498.28;;;9.58;91.61
62051;BME280;48008;51.204;6.766;2023-03-22T02:06:26;100498.91;;;9.52;91.76
62051;BME280;48008;51.204;6.766;2023-03-22T02:09:04;100493.25;;;9.47;91.91
62051;BME280;48008;51.204;6.766;2023-03-22T02:11:35;100489.78;;;9.47;92.26
62051;BME280;48008;51.204;6.766;2023-03-22T02:14:27;100488.63;;;9.49;92.21
62051;BME280;48008;51.204;6.766;2023-03-22T02:20:44;100482.66;;;9.47;92.83
62051;BME280;48008;51.204;6.766;2023-03-22T02:23:38;100486.59;;;9.43;93.13
62051;BME280;48008;51.204;6.766;2023-03-22T02:29:40;100474.03;;;9.45;93.35
62051;BME280;48008;51.204;6.766;2023-03-22T02:38:23;100453.78;;;9.36;93.74
62051;BME280;48008;51.204;6.766;2023-03-22T02:44:20;100449.53;;;9.25;93.87
62051;BME280;48008;51.204;6.766;2023-03-22T02:47:00;100444.94;;;9.27;94.06
62051;BME280;48008;51.204;6.766;2023-03-22T02:49:35;100442.28;;;9.27;94.29
62051;BME280;48008;51.204;6.766;2023-03-22T02:52:29;100449.03;;;9.21;94.21
62051;BME280;48008;51.204;6.766;2023-03-22T03:00:30;100444.03;;;9.18;94.47
62051;BME280;48008;51.204;6.766;2023-03-22T03:03:05;100432.91;;;9.15;94.44
62051;BME280;48008;51.204;6.766;2023-03-22T03:05:40;100434.59;;;9.16;95.06
62051;BME280;48008;51.204;6.766;2023-03-22T03:08:09;100440.16;;;9.13;95.05
62051;BME280;48008;51.204;6.766;2023-03-22T03:10:39;100430.72;;;9.10;95.55
62051;BME280;48008;51.204;6.766;2023-03-22T03:13:12;100438.53;;;9.12;95.72
62051;BME280;48008;51.204;6.766;2023-03-22T03:15:41;100435.72;;;9.13;95.37
62051;BME280;48008;51.204;6.766;2023-03-22T03:21:00;100441.22;;;9.02;96.32
62051;BME280;48008;51.204;6.766;2023-03-22T03:24:01;100426.88;;;9.05;96.29
62051;BME280;48008;51.204;6.766;2023-03-22T03:26:57;100425.72;;;9.07;96.04
62051;BME280;48008;51.204;6.766;2023-03-22T03:29:34;100432.31;;;9.03;96.32
62051;BME280;48008;51.204;6.766;2023-03-22T03:35:02;100425.69;;;8.99;96.96
62051;BME280;48008;51.204;6.766;2023-03-22T03:37:36;100425.69;;;8.99;96.70
62051;BME280;48008;51.204;6.766;2023-03-22T03:40:13;100419.47;;;9.08;96.40
62051;BME280;48008;51.204;6.766;2023-03-22T03:42:46;100413.81;;;9.03;96.91
62051;BME280;48008;51.204;6.766;2023-03-22T03:45:15;100415.97;;;9.08;97.24
62051;BME280;48008;51.204;6.766;2023-03-22T03:47:45;100419.78;;;9.05;97.48
62051;BME280;48008;51.204;6.766;2023-03-22T03:50:14;100411.06;;;9.13;97.19
62051;BME280;48008;51.204;6.766;2023-03-22T03:52:41;100413.13;;;9.19;96.63
62051;BME280;48008;51.204;6.766;2023-03-22T03:55:08;100418.47;;;9.27;95.87
62051;BME280;48008;51.204;6.766;2023-03-22T03:57:35;100416.28;;;9.22;96.41
62051;BME280;48008;51.204;6.766;2023-03-22T04:00:03;100425.81;;;9.15;96.70
62051;BME280;48008;51.204;6.766;2023-03-22T04:02:51;100422.56;;;9.21;96.03
62051;BME280;48008;51.204;6.766;2023-03-22T04:05:35;100424.38;;;9.21;96.86
62051;BME280;48008;51.204;6.766;2023-03-22T04:08:03;100433.75;;;9.15;96.60
62051;BME280;48008;51.204;6.766;2023-03-22T04:10:32;100428.53;;;9.23;96.61
62051;BME280;48008;51.204;6.766;2023-03-22T04:12:58;100424.56;;;9.28;95.79
62051;BME280;48008;51.204;6.766;2023-03-22T04:15:25;100431.84;;;9.26;95.53
62051;BME280;48008;51.204;6.766;2023-03-22T04:17:56;100420.56;;;9.23;96.13
62051;BME280;48008;51.204;6.766;2023-03-22T04:20:25;100422.09;;;9.26;96.32
62051;BME280;48008;51.204;6.766;2023-03-22T04:22:55;100416.28;;;9.22;96.50
62051;BME280;48008;51.204;6.766;2023-03-22T04:25:24;100428.66;;;9.22;96.32
62051;BME280;48008;51.204;6.766;2023-03-22T04:28:02;100422.78;;;9.28;95.71
62051;BME280;48008;51.204;6.766;2023-03-22T04:30:33;100415.13;;;9.25;95.37
62051;BME280;48008;51.204;6.766;2023-03-22T04:33:21;100417.78;;;9.25;95.68
62051;BME280;48008;51.204;6.766;2023-03-22T04:36:08;100409.69;;;9.27;95.34
62051;BME280;48008;51.204;6.766;2023-03-22T04:38:49;100408.53;;;9.29;95.52
62051;BME280;48008;51.204;6.766;2023-03-22T04:41:20;100397.63;;;9.24;95.32
62051;BME280;48008;51.204;6.766;2023-03-22T04:43:50;100402.00;;;9.15;95.49
62051;BME280;48008;51.204;6.766;2023-03-22T04:46:17;100402.06;;;9.23;94.71
62051;BME280;48008;51.204;6.766;2023-03-22T04:48:53;100400.41;;;9.22;95.88
62051;BME280;48008;51.204;6.766;2023-03-22T04:51:21;100402.81;;;9.34;94.78
62051;BME280;48008;51.204;6.766;2023-03-22T04:54:07;100404.41;;;9.27;95.05
62051;BME280;48008;51.204;6.766;2023-03-22T04:56:40;100400.41;;;9.22;95.53
62051;BME280;48008;51.204;6.766;2023-03-22T04:59:07;100403.59;;;9.26;95.14
62051;BME280;48008;51.204;6.766;2023-03-22T05:01:36;100406.03;;;9.28;94.82
62051;BME280;48008;51.204;6.766;2023-03-22T05:04:10;100404.44;;;9.35;94.95
62051;BME280;48008;51.204;6.766;2023-03-22T05:06:39;100408.31;;;9.40;95.02
62051;BME280;48008;51.204;6.766;2023-03-22T05:09:14;100405.41;;;9.52;93.97
62051;BME280;48008;51.204;6.766;2023-03-22T05:11:41;100397.31;;;9.53;94.26
62051;BME280;48008;51.204;6.766;2023-03-22T05:14:28;100391.84;;;9.55;94.35
62051;BME280;48008;51.204;6.766;2023-03-22T05:16:55;100398.00;;;9.55;93.99
62051;BME280;48008;51.204;6.766;2023-03-22T05:19:21;100396.16;;;9.56;94.12
62051;BME280;48008;51.204;6.766;2023-03-22T05:21:50;100404.25;;;9.54;94.14
62051;BME280;48008;51.204;6.766;2023-03-22T05:24:29;100399.38;;;9.41;94.33
62051;BME280;48008;51.204;6.766;2023-03-22T05:26:57;100407.44;;;9.58;94.25
62051;BME280;48008;51.204;6.766;2023-03-22T05:29:27;100398.81;;;9.56;94.06
62051;BME280;48008;51.204;6.766;2023-03-22T05:32:03;100408.47;;;9.65;93.74
62051;BME280;48008;51.204;6.766;2023-03-22T05:34:30;100403.84;;;9.67;93.53
62051;BME280;48008;51.204;6.766;2023-03-22T05:37:10;100406.03;;;9.72;93.18
62051;BME280;48008;51.204;6.766;2023-03-22T05:39:46;100406.84;;;9.72;92.80
62051;BME280;48008;51.204;6.766;2023-03-22T05:42:13;100407.22;;;9.77;92.69
62051;BME280;48008;51.204;6.766;2023-03-22T05:44:42;100408.72;;;9.80;92.88
62051;BME280;48008;51.204;6.766;2023-03-22T05:47:11;100404.09;;;9.82;93.09
62051;BME280;48008;51.204;6.766;2023-03-22T05:49:48;100413.06;;;9.89;92.57
62051;BME280;48008;51.204;6.766;2023-03-22T05:52:15;100404.59;;;9.86;91.91
62051;BME280;48008;51.204;6.766;2023-03-22T05:55:02;100402.16;;;9.92;92.23
62051;BME280;48008;51.204;6.766;2023-03-22T05:57:29;100404.31;;;9.89;92.33
62051;BME280;48008;51.204;6.766;2023-03-22T05:59:56;100409.66;;;9.97;92.27
62051;BME280;48008;51.204;6.766;2023-03-22T06:02:49;100409.47;;;9.98;92.27
62051;BME280;48008;51.204;6.766;2023-03-22T06:05:18;100402.88;;;10.03;91.90
62051;BME280;48008;51.204;6.766;2023-03-22T06:07:48;100399.44;;;10.10;91.69
62051;BME280;48008;51.204;6.766;2023-03-22T06:10:17;100401.41;;;10.08;91.31
62051;BME280;48008;51.204;6.766;2023-03-22T06:12:44;100412.84;;;10.09;91.54
62051;BME280;48008;51.204;6.766;2023-03-22T06:15:21;100416.97;;;10.11;91.19
62051;BME280;48008;51.204;6.766;2023-03-22T06:17:57;100418.16;;;10.09;91.80
62051;BME280;48008;51.204;6.766;2023-03-22T06:20:28;100418.72;;;10.21;90.61
62051;BME280;48008;51.204;6.766;2023-03-22T06:23:01;100420.66;;;10.18;90.47
62051;BME280;48008;51.204;6.766;2023-03-22T06:25:28;100422.84;;;10.23;90.52
62051;BME280;48008;51.204;6.766;2023-03-22T06:27:55;100422.84;;;10.23;90.51
62051;BME280;48008;51.204;6.766;2023-03-22T06:30:23;100417.38;;;10.25;90.48
62051;BME280;48008;51.204;6.766;2023-03-22T06:33:11;100419.88;;;10.26;90.33
62051;BME280;48008;51.204;6.766;2023-03-22T06:35:42;100410.91;;;10.19;90.44
62051;BME280;48008;51.204;6.766;2023-03-22T06:38:13;100413.56;;;10.19;90.24
62051;BME280;48008;51.204;6.766;2023-03-22T06:40:40;100403.81;;;10.28;90.29
62051;BME280;48008;51.204;6.766;2023-03-22T06:43:07;100401.22;;;10.36;90.73
62051;BME280;48008;51.204;6.766;2023-03-22T06:45:37;100401.00;;;10.29;90.02
62051;BME280;48008;51.204;6.766;2023-03-22T06:48:06;100407.38;;;10.45;88.80
62051;BME280;48008;51.204;6.766;2023-03-22T06:50:47;100406.88;;;10.49;88.47
62051;BME280;48008;51.204;6.766;2023-03-22T06:53:26;100400.94;;;10.55;88.51
62051;BME280;48008;51.204;6.766;2023-03-22T06:55:53;100395.75;;;10.46;88.53
62051;BME280;48008;51.204;6.766;2023-03-22T06:58:22;100402.94;;;10.62;88.04
62051;BME280;48008;51.204;6.766;2023-03-22T07:00:49;100391.50;;;10.61;88.16
62051;BME280;48008;51.204;6.766;2023-03-22T07:03:18;100403.28;;;10.67;87.86
62051;BME280;48008;51.204;6.766;2023-03-22T07:05:49;100398.16;;;10.73;86.78
62051;BME280;48008;51.204;6.766;2023-03-22T07:08:17;100399.97;;;10.73;86.56
62051;BME280;48008;51.204;6.766;2023-03-22T07:10:49;100397.19;;;10.83;86.18
62051;BME280;48008;51.204;6.766;2023-03-22T07:13:19;100382.44;;;10.88;85.54
62051;BME280;48008;51.204;6.766;2023-03-22T07:15:48;100386.56;;;10.91;84.06
62051;BME280;48008;51.204;6.766;2023-03-22T07:18:29;100383.25;;;11.05;83.14
62051;BME280;48008;51.204;6.766;2023-03-22T07:20:56;100382.91;;;11.00;83.17
62051;BME280;48008;51.204;6.766;2023-03-22T07:23:23;100390.06;;;11.00;83.28
62051;BME280;48008;51.204;6.766;2023-03-22T07:25:51;100383.28;;;11.13;83.11
62051;BME280;48008;51.204;6.766;2023-03-22T07:28:26;100391.72;;;11.25;81.96
62051;BME280;48008;51.204;6.766;2023-03-22T07:31:04;100383.72;;;11.42;81.95
62051;BME280;48008;51.204;6.766;2023-03-22T07:33:43;100379.72;;;11.46;82.43
62051;BME280;48008;51.204;6.766;2023-03-22T07:36:10;100379.25;;;11.50;80.75
62051;BME280;48008;51.204;6.766;2023-03-22T07:38:38;100376.41;;;11.52;80.39
62051;BME280;48008;51.204;6.766;2023-03-22T07:41:10;100382.38;;;11.54;81.71
62051;BME280;48008;51.204;6.766;2023-03-22T07:43:51;100384.72;;;11.57;79.90
62051;BME280;48008;51.204;6.766;2023-03-22T07:46:23;100378.91;;;11.45;81.55
62051;BME280;48008;51.204;6.766;2023-03-22T07:49:10;100377.56;;;11.58;79.93
62051;BME280;48008;51.204;6.766;2023-03-22T07:51:58;100377.56;;;11.58;80.52
62051;BME280;48008;51.204;6.766;2023-03-22T07:54:26;100381.72;;;11.52;79.22
62051;BME280;48008;51.204;6.766;2023-03-22T07:57:01;100385.53;;;11.58;79.43
62051;BME280;48008;51.204;6.766;2023-03-22T07:59:31;100388.56;;;11.46;79.56
62051;BME280;48008;51.204;6.766;2023-03-22T08:01:58;100386.72;;;11.47;78.83
62051;BME280;48008;51.204;6.766;2023-03-22T08:04:30;100389.03;;;11.50;78.87
62051;BME280;48008;51.204;6.766;2023-03-22T08:07:17;100397.84;;;11.42;79.09
62051;BME280;48008;51.204;6.766;2023-03-22T08:09:46;100403.34;;;11.41;78.84
62051;BME280;48008;51.204;6.766;2023-03-22T08:12:13;100396.69;;;11.45;78.48
62051;BME280;48008;51.204;6.766;2023-03-22T08:14:41;100395.69;;;11.38;77.44
62051;BME280;48008;51.204;6.766;2023-03-22T08:17:17;100400.81;;;11.47;75.53
62051;BME280;48008;51.204;6.766;2023-03-22T08:19:45;100401.00;;;11.38;75.27
62051;BME280;48008;51.204;6.766;2023-03-22T08:22:18;100396.00;;;11.51;75.71
62051;BME280;48008;51.204;6.766;2023-03-22T08:25:09;100398.81;;;11.58;73.58
62051;BME280;48008;51.204;6.766;2023-03-22T08:27:38;100400.78;;;11.64;72.95
62051;BME280;48008;51.204;6.766;2023-03-22T08:30:06;100422.91;;;11.64;71.53
62051;BME280;48008;51.204;6.766;2023-03-22T08:32:33;100392.69;;;11.57;73.04
62051;BME280;48008;51.204;6.766;2023-03-22T08:35:03;100405.44;;;11.62;71.95
62051;BME280;48008;51.204;6.766;2023-03-22T08:37:29;100399.47;;;11.68;71.79
62051;BME280;48008;51.204;6.766;2023-03-22T08:39:59;100407.94;;;11.71;71.96
62051;BME280;48008;51.204;6.766;2023-03-22T08:42:34;100402.63;;;11.71;71.67
62051;BME280;48008;51.204;6.766;2023-03-22T08:45:03;100410.06;;;11.76;71.12
62051;BME280;48008;51.204;6.766;2023-03-22T08:47:31;100402.63;;;11.71;71.27
62051;BME280;48008;51.204;6.766;2023-03-22T08:50:01;100400.63;;;11.74;70.58
62051;BME280;48008;51.204;6.766;2023-03-22T08:52:39;100400.91;;;11.79;71.37
62051;BME280;48008;51.204;6.766;2023-03-22T08:55:14;100399.56;;;11.99;69.60
62051;BME280;48008;51.204;6.766;2023-03-22T08:58:02;100395.34;;;12.13;68.48
62051;BME280;48008;51.204;6.766;2023-03-22T09:00:39;100392.19;;;12.18;67.72
62051;BME280;48008;51.204;6.766;2023-03-22T09:03:21;100415.91;;;12.27;66.99
62051;BME280;48008;51.204;6.766;2023-03-22T09:05:50;100400.34;;;12.47;66.47
62051;BME280;48008;51.204;6.766;2023-03-22T09:08:19;100400.56;;;12.69;65.02
62051;BME280;48008;51.204;6.766;2023-03-22T09:10:51;100395.59;;;12.89;63.24
62051;BME280;48008;51.204;6.766;2023-03-22T09:13:21;100405.09;;;12.92;61.94
62051;BME280;48008;51.204;6.766;2023-03-22T09:15:53;100396.75;;;13.10;61.54
62051;BME280;48008;51.204;6.766;2023-03-22T09:18:26;100396.28;;;13.06;61.64
62051;BME280;48008;51.204;6.766;2023-03-22T09:20:56;100414.72;;;13.16;63.33
62051;BME280;48008;51.204;6.766;2023-03-22T09:23:30;100394.34;;;13.23;64.30
62051;BME280;48008;51.204;6.766;2023-03-22T09:26:00;100397.19;;;13.44;61.50
62051;BME280;48008;51.204;6.766;2023-03-22T09:28:27;100391.97;;;13.66;60.50
62051;BME280;48008;51.204;6.766;2023-03-22T09:31:00;100393.19;;;13.40;61.02
62051;BME280;48008;51.204;6.766;2023-03-22T09:33:28;100387.63;;;13.35;60.99
62051;BME280;48008;51.204;6.766;2023-03-22T09:35:55;100385.13;;;13.11;61.64
62051;BME280;48008;51.204;6.766;2023-03-22T09:38:23;100382.59;;;12.94;60.75
62051;BME280;48008;51.204;6.766;2023-03-22T09:41:01;100380.16;;;12.61;61.74
62051;BME280;48008;51.204;6.766;2023-03-22T09:43:36;100387.59;;;12.43;63.35
62051;BME280;48008;51.204;6.766;2023-03-22T09:46:09;100396.94;;;12.39;63.36
62051;BME280;48008;51.204;6.766;2023-03-22T09:48:40;100401.88;;;12.42;63.89
62051;BME280;48008;51.204;6.766;2023-03-22T09:51:25;100400.03;;;13.43;60.23
62051;BME280;48008;51.204;6.766;2023-03-22T09:53:55;100391.19;;;14.32;58.05
62051;BME280;48008;51.204;6.766;2023-03-22T09:56:25;100381.00;;;14.06;58.22
62051;BME280;48008;51.204;6.766;2023-03-22T09:59:16;100379.28;;;13.83;58.91
62051;BME280;48008;51.204;6.766;2023-03-22T10:01:52;100388.47;;;14.10;58.55
62051;BME280;48008;51.204;6.766;2023-03-22T10:07:30;100372.94;;;13.54;58.67
62051;BME280;48008;51.204;6.766;2023-03-22T10:10:11;100376.53;;;13.23;60.08
62051;BME280;48008;51.204;6.766;2023-03-22T10:15:29;100364.28;;;13.14;60.49
62051;BME280;48008;51.204;6.766;2023-03-22T10:17:59;100369.44;;;13.16;61.80
62051;BME280;48008;51.204;6.766;2023-03-22T10:23:22;100357.75;;;13.40;60.14
62051;BME280;48008;51.204;6.766;2023-03-22T10:25:51;100367.25;;;13.72;59.27
62051;BME280;48008;51.204;6.766;2023-03-22T10:28:25;100369.22;;;14.15;58.52
62051;BME280;48008;51.204;6.766;2023-03-22T10:30:55;100361.88;;;14.02;58.58
62051;BME280;48008;51.204;6.766;2023-03-22T10:33:30;100373.69;;;13.78;58.49
62051;BME280;48008;51.204;6.766;2023-03-22T10:36:00;100360.88;;;13.58;57.84
62051;BME280;48008;51.204;6.766;2023-03-22T10:38:29;100361.28;;;13.70;59.59
62051;BME280;48008;51.204;6.766;2023-03-22T10:40:58;100363.94;;;13.55;59.86
62051;BME280;48008;51.204;6.766;2023-03-22T10:43:35;100358.41;;;13.57;60.03
62051;BME280;48008;51.204;6.766;2023-03-22T10:46:06;100367.66;;;13.46;59.86
62051;BME280;48008;51.204;6.766;2023-03-22T10:48:38;100364.28;;;13.67;59.77
62051;BME280;48008;51.204;6.766;2023-03-22T10:51:10;100367.03;;;13.44;59.25
62051;BME280;48008;51.204;6.766;2023-03-22T10:53:46;100366.19;;;13.43;59.14
62051;BME280;48008;51.204;6.766;2023-03-22T10:56:16;100373.63;;;13.33;59.01
62051;BME280;48008;51.204;6.766;2023-03-22T10:58:45;100369.50;;;13.07;59.97
62051;BME280;48008;51.204;6.766;2023-03-22T11:01:15;100363.75;;;13.19;59.61
62051;BME280;48008;51.204;6.766;2023-03-22T11:03:48;100359.94;;;13.13;59.24
62051;BME280;48008;51.204;6.766;2023-03-22T11:06:18;100365.22;;;13.21;59.51
62051;BME280;48008;51.204;6.766;2023-03-22T11:08:56;100370.19;;;13.24;58.92
62051;BME280;48008;51.204;6.766;2023-03-22T11:14:01;100365.66;;;12.87;59.27
62051;BME280;48008;51.204;6.766;2023-03-22T11:16:31;100375.97;;;12.90;59.31
62051;BME280;48008;51.204;6.766;2023-03-22T11:19:13;100384.00;;;12.82;60.56
62051;BME280;48008;51.204;6.766;2023-03-22T11:21:41;100368.28;;;12.72;60.91
62051;BME280;48008;51.204;6.766;2023-03-22T11:24:11;100363.28;;;12.69;61.70
62051;BME280;48008;51.204;6.766;2023-03-22T11:26:39;100365.91;;;12.77;61.96
62051;BME280;48008;51.204;6.766;2023-03-22T11:29:12;100365.84;;;12.85;61.72
62051;BME280;48008;51.204;6.766;2023-03-22T11:31:50;100365.03;;;12.85;61.12
62051;BME280;48008;51.204;6.766;2023-03-22T11:34:24;100363.09;;;12.79;61.03
62051;BME280;48008;51.204;6.766;2023-03-22T11:36:52;100360.94;;;12.74;61.47
62051;BME280;48008;51.204;6.766;2023-03-22T11:39:28;100369.41;;;12.78;61.12
62051;BME280;48008;51.204;6.766;2023-03-22T11:41:58;100357.56;;;12.80;61.95
62051;BME280;48008;51.204;6.766;2023-03-22T11:44:31;100361.53;;;12.84;61.64
62051;BME280;48008;51.204;6.766;2023-03-22T11:47:01;100362.84;;;12.89;59.97
62051;BME280;48008;51.204;6.766;2023-03-22T11:52:18;100355.91;;;13.02;59.79
62051;BME280;48008;51.204;6.766;2023-03-22T11:54:46;100339.03;;;13.10;59.97
62051;BME280;48008;51.204;6.766;2023-03-22T11:57:15;100350.97;;;13.14;59.37
62051;BME280;48008;51.204;6.766;2023-03-22T11:59:46;100343.72;;;13.08;60.21
62051;BME280;48008;51.204;6.766;2023-03-22T12:04:57;100345.25;;;13.02;59.12
62051;BME280;48008;51.204;6.766;2023-03-22T12:07:28;100338.78;;;12.97;59.67
62051;BME280;48008;51.204;6.766;2023-03-22T12:10:32;100340.03;;;12.86;59.31
62051;BME280;48008;51.204;6.766;2023-03-22T12:12:58;100331.41;;;12.84;58.57
62051;BME280;48008;51.204;6.766;2023-03-22T12:15:28;100332.91;;;12.86;58.98
62051;BME280;48008;51.204;6.766;2023-03-22T12:18:18;100328.06;;;12.90;58.65
62051;BME280;48008;51.204;6.766;2023-03-22T12:20:52;100329.88;;;12.90;58.94
62051;BME280;48008;51.204;6.766;2023-03-22T12:23:23;100324.84;;;12.95;58.18
62051;BME280;48008;51.204;6.766;2023-03-22T12:26:03;100330.63;;;12.98;58.59
62051;BME280;48008;51.204;6.766;2023-03-22T12:28:40;100325.56;;;12.89;58.44
62051;BME280;48008;51.204;6.766;2023-03-22T12:31:14;100321.22;;;12.87;59.23
62051;BME280;48008;51.204;6.766;2023-03-22T12:33:53;100324.44;;;12.83;59.56
62051;BME280;48008;51.204;6.766;2023-03-22T12:36:26;100323.81;;;12.81;60.54
62051;BME280;48008;51.204;6.766;2023-03-22T12:38:57;100318.50;;;12.96;59.16
62051;BME280;48008;51.204;6.766;2023-03-22T12:44:29;100329.13;;;12.81;61.09
62051;BME280;48008;51.204;6.766;2023-03-22T12:47:03;100330.06;;;12.88;59.98
62051;BME280;48008;51.204;6.766;2023-03-22T12:49:38;100331.63;;;12.82;61.43
62051;BME280;48008;51.204;6.766;2023-03-22T12:52:14;100326.34;;;12.74;61.97
62051;BME280;48008;51.204;6.766;2023-03-22T12:54:42;100326.72;;;12.86;62.14
62051;BME280;48008;51.204;6.766;2023-03-22T12:57:09;100337.28;;;12.79;61.87
62051;BME280;48008;51.204;6.766;2023-03-22T12:59:41;100333.59;;;12.80;62.80
62051;BME280;48008;51.204;6.766;2023-03-22T13:02:29;100330.38;;;12.70;62.20
62051;BME280;48008;51.204;6.766;2023-03-22T13:04:59;100326.34;;;12.74;62.37
62051;BME280;48008;51.204;6.766;2023-03-22T13:07:31;100326.72;;;12.86;62.04
62051;BME280;48008;51.204;6.766;2023-03-22T13:10:00;100324.66;;;12.73;62.00
62051;BME280;48008;51.204;6.766;2023-03-22T13:16:14;100328.41;;;12.87;62.62
62051;BME280;48008;51.204;6.766;2023-03-22T13:21:24;100316.94;;;12.86;62.98
62051;BME280;48008;51.204;6.766;2023-03-22T13:23:58;100316.47;;;12.83;62.52
62051;BME280;48008;51.204;6.766;2023-03-22T13:26:49;100320.75;;;12.84;63.39
62051;BME280;48008;51.204;6.766;2023-03-22T13:29:20;100317.72;;;12.72;63.53
62051;BME280;48008;51.204;6.766;2023-03-22T13:34:47;100313.56;;;12.70;64.53
62051;BME280;48008;51.204;6.766;2023-03-22T13:37:44;100306.25;;;12.72;64.81
62051;BME280;48008;51.204;6.766;2023-03-22T13:43:19;100307.06;;;12.72;64.84
62051;BME280;48008;51.204;6.766;2023-03-22T13:48:52;100296.16;;;12.82;64.92
62051;BME280;48008;51.204;6.766;2023-03-22T13:54:17;100307.72;;;12.74;66.76
62051;BME280;48008;51.204;6.766;2023-03-22T13:56:56;100292.94;;;12.72;65.46
62051;BME280;48008;51.204;6.766;2023-03-22T14:02:11;100298.91;;;12.74;66.45
62051;BME280;48008;51.204;6.766;2023-03-22T14:04:47;100295.22;;;12.75;67.17
62051;BME280;48008;51.204;6.766;2023-03-22T14:07:27;100293.22;;;12.77;66.58
62051;BME280;48008;51.204;6.766;2023-03-22T14:10:01;100284.41;;;12.76;66.91
62051;BME280;48008;51.204;6.766;2023-03-22T14:12:55;100290.53;;;12.77;65.92
62051;BME280;48008;51.204;6.766;2023-03-22T14:15:27;100285.50;;;12.82;66.72
62051;BME280;48008;51.204;6.766;2023-03-22T14:17:59;100279.91;;;12.77;66.77
62051;BME280;48008;51.204;6.766;2023-03-22T14:20:32;100275.25;;;12.79;67.71
62051;BME280;48008;51.204;6.766;2023-03-22T14:23:04;100279.38;;;12.81;67.83
62051;BME280;48008;51.204;6.766;2023-03-22T14:25:32;100271.97;;;12.92;66.48
62051;BME280;48008;51.204;6.766;2023-03-22T14:27:59;100269.25;;;12.77;67.57
62051;BME280;48008;51.204;6.766;2023-03-22T14:30:34;100265.28;;;12.96;66.09